sensor_id;sensor_type;location;lat;lon;timestamp;P1;durP1;ratioP1;P2;durP2;ratioP2
74660;SDS011;63191;39.566;2.654;2023-02-03T00:02:23;12.30;;;5.50;;
74660;SDS011;63191;39.566;2.654;2023-02-03T00:04:49;11.70;;;5.10;;
74660;SDS011;63191;39.566;2.654;2023-02-03T00:07:15;11.80;;;4.90;;
74660;SDS011;63191;39.566;2.654;2023-02-03T00:09:41;11.40;;;5.20;;
74660;SDS011;63191;39.566;2.654;2023-02-03T00:12:07;11.90;;;4.90;;
74660;SDS011;63191;39.566;2.654;2023-02-03T00:14:33;11.30;;;5.30;;
74660;SDS011;63191;39.566;2.654;2023-02-03T00:17:02;11.60;;;4.80;;
74660;SDS011;63191;39.566;2.654;2023-02-03T00:19:28;10.80;;;4.10;;
74660;SDS011;63191;39.566;2.654;2023-02-03T00:21:54;11.60;;;4.60;;
74660;SDS011;63191;39.566;2.654;2023-02-03T00:24:21;12.80;;;4.60;;
74660;SDS011;63191;39.566;2.654;2023-02-03T00:26:48;12.10;;;4.00;;
74660;SDS011;63191;39.566;2.654;2023-02-03T00:29:14;10.00;;;4.10;;
74660;SDS011;63191;39.566;2.654;2023-02-03T00:31:43;10.00;;;4.00;;
74660;SDS011;63191;39.566;2.654;2023-02-03T00:34:08;9.60;;;4.10;;
74660;SDS011;63191;39.566;2.654;2023-02-03T00:36:35;9.60;;;4.00;;
74660;SDS011;63191;39.566;2.654;2023-02-03T00:39:02;9.00;;;3.60;;
74660;SDS011;63191;39.566;2.654;2023-02-03T00:41:29;8.70;;;3.40;;
74660;SDS011;63191;39.566;2.654;2023-02-03T00:43:58;10.20;;;3.10;;
74660;SDS011;63191;39.566;2.654;2023-02-03T00:46:25;7.40;;;2.70;;
74660;SDS011;63191;39.566;2.654;2023-02-03T00:48:51;9.60;;;3.10;;
74660;SDS011;63191;39.566;2.654;2023-02-03T00:51:16;7.00;;;2.90;;
74660;SDS011;63191;39.566;2.654;2023-02-03T00:53:42;7.90;;;2.70;;
74660;SDS011;63191;39.566;2.654;2023-02-03T00:56:11;9.00;;;2.80;;
74660;SDS011;63191;39.566;2.654;2023-02-03T00:58:40;9.50;;;3.10;;
74660;SDS011;63191;39.566;2.654;2023-02-03T01:01:06;8.80;;;2.80;;
74660;SDS011;63191;39.566;2.654;2023-02-03T01:03:32;6.60;;;2.60;;
74660;SDS011;63191;39.566;2.654;2023-02-03T01:06:17;9.60;;;3.00;;
74660;SDS011;63191;39.566;2.654;2023-02-03T01:08:44;9.30;;;3.10;;
74660;SDS011;63191;39.566;2.654;2023-02-03T01:11:16;8.40;;;2.80;;
74660;SDS011;63191;39.566;2.654;2023-02-03T01:13:44;9.30;;;2.80;;
74660;SDS011;63191;39.566;2.654;2023-02-03T01:16:14;8.10;;;3.60;;
74660;SDS011;63191;39.566;2.654;2023-02-03T01:18:42;8.00;;;3.10;;
74660;SDS011;63191;39.566;2.654;2023-02-03T01:21:14;7.50;;;2.70;;
74660;SDS011;63191;39.566;2.654;2023-02-03T01:23:42;8.30;;;3.20;;
74660;SDS011;63191;39.566;2.654;2023-02-03T01:26:12;9.70;;;3.60;;
74660;SDS011;63191;39.566;2.654;2023-02-03T01:28:39;7.70;;;2.90;;
74660;SDS011;63191;39.566;2.654;2023-02-03T01:31:16;7.90;;;3.20;;
74660;SDS011;63191;39.566;2.654;2023-02-03T01:33:44;6.90;;;2.50;;
74660;SDS011;63191;39.566;2.654;2023-02-03T01:36:14;6.70;;;2.10;;
74660;SDS011;63191;39.566;2.654;2023-02-03T01:38:41;8.30;;;2.90;;
74660;SDS011;63191;39.566;2.654;2023-02-03T01:41:10;7.10;;;2.40;;
74660;SDS011;63191;39.566;2.654;2023-02-03T01:43:47;8.10;;;2.90;;
74660;SDS011;63191;39.566;2.654;2023-02-03T01:46:38;7.00;;;2.70;;
74660;SDS011;63191;39.566;2.654;2023-02-03T01:49:20;8.70;;;2.70;;
74660;SDS011;63191;39.566;2.654;2023-02-03T01:51:49;5.80;;;1.90;;
74660;SDS011;63191;39.566;2.654;2023-02-03T01:54:22;7.50;;;2.20;;
74660;SDS011;63191;39.566;2.654;2023-02-03T01:57:00;7.60;;;2.80;;
74660;SDS011;63191;39.566;2.654;2023-02-03T01:59:30;6.90;;;2.60;;
74660;SDS011;63191;39.566;2.654;2023-02-03T02:01:58;7.30;;;2.50;;
74660;SDS011;63191;39.566;2.654;2023-02-03T02:04:30;7.50;;;2.50;;
74660;SDS011;63191;39.566;2.654;2023-02-03T02:06:59;5.70;;;1.80;;
74660;SDS011;63191;39.566;2.654;2023-02-03T02:09:26;8.50;;;2.80;;
74660;SDS011;63191;39.566;2.654;2023-02-03T02:11:52;7.50;;;2.50;;
74660;SDS011;63191;39.566;2.654;2023-02-03T02:14:18;6.70;;;2.10;;
74660;SDS011;63191;39.566;2.654;2023-02-03T02:23:53;7.70;;;2.30;;
74660;SDS011;63191;39.566;2.654;2023-02-03T02:26:43;6.30;;;1.80;;
74660;SDS011;63191;39.566;2.654;2023-02-03T02:41:07;7.90;;;2.20;;
74660;SDS011;63191;39.566;2.654;2023-02-03T02:43:39;6.80;;;2.20;;
74660;SDS011;63191;39.566;2.654;2023-02-03T02:46:52;7.00;;;2.40;;
74660;SDS011;63191;39.566;2.654;2023-02-03T02:49:43;6.90;;;2.20;;
74660;SDS011;63191;39.566;2.654;2023-02-03T02:52:13;9.10;;;2.70;;
74660;SDS011;63191;39.566;2.654;2023-02-03T02:54:43;7.40;;;2.30;;
74660;SDS011;63191;39.566;2.654;2023-02-03T02:57:13;8.50;;;2.50;;
74660;SDS011;63191;39.566;2.654;2023-02-03T02:59:41;6.40;;;2.20;;
74660;SDS011;63191;39.566;2.654;2023-02-03T03:02:10;6.80;;;1.80;;
74660;SDS011;63191;39.566;2.654;2023-02-03T03:04:36;6.80;;;2.10;;
74660;SDS011;63191;39.566;2.654;2023-02-03T03:07:07;6.10;;;2.20;;
74660;SDS011;63191;39.566;2.654;2023-02-03T03:09:41;8.10;;;2.40;;
74660;SDS011;63191;39.566;2.654;2023-02-03T03:12:15;7.80;;;2.10;;
74660;SDS011;63191;39.566;2.654;2023-02-03T03:15:06;7.40;;;2.30;;
74660;SDS011;63191;39.566;2.654;2023-02-03T03:17:41;7.90;;;1.90;;
74660;SDS011;63191;39.566;2.654;2023-02-03T03:20:15;5.00;;;1.40;;
74660;SDS011;63191;39.566;2.654;2023-02-03T03:22:49;5.50;;;1.90;;
74660;SDS011;63191;39.566;2.654;2023-02-03T03:25:30;8.50;;;2.00;;
74660;SDS011;63191;39.566;2.654;2023-02-03T03:28:02;6.00;;;2.00;;
74660;SDS011;63191;39.566;2.654;2023-02-03T03:30:35;6.90;;;2.00;;
74660;SDS011;63191;39.566;2.654;2023-02-03T03:33:03;6.20;;;1.80;;
74660;SDS011;63191;39.566;2.654;2023-02-03T03:35:36;7.10;;;2.40;;
74660;SDS011;63191;39.566;2.654;2023-02-03T03:38:11;5.70;;;1.80;;
74660;SDS011;63191;39.566;2.654;2023-02-03T03:40:50;6.10;;;1.80;;
74660;SDS011;63191;39.566;2.654;2023-02-03T03:43:23;7.00;;;1.80;;
74660;SDS011;63191;39.566;2.654;2023-02-03T03:45:59;7.50;;;2.20;;
74660;SDS011;63191;39.566;2.654;2023-02-03T03:48:33;8.10;;;1.80;;
74660;SDS011;63191;39.566;2.654;2023-02-03T03:51:08;7.80;;;2.00;;
74660;SDS011;63191;39.566;2.654;2023-02-03T03:53:40;10.00;;;2.10;;
74660;SDS011;63191;39.566;2.654;2023-02-03T03:56:11;5.60;;;1.40;;
74660;SDS011;63191;39.566;2.654;2023-02-03T03:58:43;8.10;;;1.80;;
74660;SDS011;63191;39.566;2.654;2023-02-03T04:01:12;6.80;;;1.90;;
74660;SDS011;63191;39.566;2.654;2023-02-03T04:03:43;6.50;;;1.70;;
74660;SDS011;63191;39.566;2.654;2023-02-03T04:06:12;6.40;;;1.60;;
74660;SDS011;63191;39.566;2.654;2023-02-03T04:08:38;6.70;;;2.00;;
74660;SDS011;63191;39.566;2.654;2023-02-03T04:11:04;7.90;;;1.80;;
74660;SDS011;63191;39.566;2.654;2023-02-03T04:13:30;7.40;;;1.60;;
74660;SDS011;63191;39.566;2.654;2023-02-03T04:15:56;5.50;;;1.50;;
74660;SDS011;63191;39.566;2.654;2023-02-03T04:18:22;6.80;;;2.10;;
74660;SDS011;63191;39.566;2.654;2023-02-03T04:20:48;5.70;;;1.50;;
74660;SDS011;63191;39.566;2.654;2023-02-03T04:23:14;5.80;;;1.70;;
74660;SDS011;63191;39.566;2.654;2023-02-03T04:25:39;6.40;;;1.60;;
74660;SDS011;63191;39.566;2.654;2023-02-03T04:28:05;7.00;;;1.50;;
74660;SDS011;63191;39.566;2.654;2023-02-03T04:30:31;5.70;;;1.60;;
74660;SDS011;63191;39.566;2.654;2023-02-03T04:32:57;6.70;;;1.60;;
74660;SDS011;63191;39.566;2.654;2023-02-03T04:35:24;6.00;;;1.30;;
74660;SDS011;63191;39.566;2.654;2023-02-03T04:37:50;5.50;;;1.50;;
74660;SDS011;63191;39.566;2.654;2023-02-03T04:40:16;7.60;;;1.70;;
74660;SDS011;63191;39.566;2.654;2023-02-03T04:42:42;5.10;;;1.20;;
74660;SDS011;63191;39.566;2.654;2023-02-03T04:45:09;6.80;;;1.60;;
74660;SDS011;63191;39.566;2.654;2023-02-03T04:47:36;6.20;;;1.70;;
74660;SDS011;63191;39.566;2.654;2023-02-03T04:50:02;7.70;;;1.70;;
74660;SDS011;63191;39.566;2.654;2023-02-03T04:52:29;5.30;;;1.50;;
74660;SDS011;63191;39.566;2.654;2023-02-03T04:54:56;6.70;;;1.60;;
74660;SDS011;63191;39.566;2.654;2023-02-03T04:57:22;5.80;;;1.30;;
74660;SDS011;63191;39.566;2.654;2023-02-03T04:59:48;5.80;;;1.20;;
74660;SDS011;63191;39.566;2.654;2023-02-03T05:02:14;7.70;;;1.40;;
74660;SDS011;63191;39.566;2.654;2023-02-03T05:04:40;5.60;;;1.50;;
74660;SDS011;63191;39.566;2.654;2023-02-03T05:07:08;6.70;;;1.70;;
74660;SDS011;63191;39.566;2.654;2023-02-03T05:09:34;6.90;;;1.40;;
74660;SDS011;63191;39.566;2.654;2023-02-03T05:12:01;8.60;;;2.10;;
74660;SDS011;63191;39.566;2.654;2023-02-03T05:14:27;7.80;;;1.50;;
74660;SDS011;63191;39.566;2.654;2023-02-03T05:16:52;7.00;;;1.40;;
74660;SDS011;63191;39.566;2.654;2023-02-03T05:19:18;5.30;;;1.30;;
74660;SDS011;63191;39.566;2.654;2023-02-03T05:21:44;6.40;;;1.30;;
74660;SDS011;63191;39.566;2.654;2023-02-03T05:24:10;6.30;;;1.40;;
74660;SDS011;63191;39.566;2.654;2023-02-03T05:26:35;5.50;;;1.70;;
74660;SDS011;63191;39.566;2.654;2023-02-03T05:29:02;5.70;;;1.10;;
74660;SDS011;63191;39.566;2.654;2023-02-03T05:31:28;5.30;;;1.40;;
74660;SDS011;63191;39.566;2.654;2023-02-03T05:33:53;5.60;;;1.60;;
74660;SDS011;63191;39.566;2.654;2023-02-03T05:36:19;7.00;;;1.50;;
74660;SDS011;63191;39.566;2.654;2023-02-03T05:38:45;5.90;;;1.50;;
74660;SDS011;63191;39.566;2.654;2023-02-03T05:41:11;6.30;;;1.50;;
74660;SDS011;63191;39.566;2.654;2023-02-03T05:43:56;8.10;;;1.70;;
74660;SDS011;63191;39.566;2.654;2023-02-03T05:46:22;6.70;;;1.50;;
74660;SDS011;63191;39.566;2.654;2023-02-03T05:48:48;6.20;;;1.50;;
74660;SDS011;63191;39.566;2.654;2023-02-03T05:51:13;5.60;;;1.40;;
74660;SDS011;63191;39.566;2.654;2023-02-03T05:53:39;6.80;;;1.10;;
74660;SDS011;63191;39.566;2.654;2023-02-03T05:56:05;5.40;;;1.50;;
74660;SDS011;63191;39.566;2.654;2023-02-03T05:58:31;6.00;;;1.50;;
74660;SDS011;63191;39.566;2.654;2023-02-03T06:00:57;6.40;;;1.80;;
74660;SDS011;63191;39.566;2.654;2023-02-03T06:03:22;8.50;;;1.90;;
74660;SDS011;63191;39.566;2.654;2023-02-03T06:05:49;7.00;;;1.70;;
74660;SDS011;63191;39.566;2.654;2023-02-03T06:08:16;7.30;;;1.70;;
74660;SDS011;63191;39.566;2.654;2023-02-03T06:10:42;7.60;;;2.00;;
74660;SDS011;63191;39.566;2.654;2023-02-03T06:13:13;8.00;;;1.60;;
74660;SDS011;63191;39.566;2.654;2023-02-03T06:15:40;8.10;;;1.80;;
74660;SDS011;63191;39.566;2.654;2023-02-03T06:18:07;8.20;;;1.50;;
74660;SDS011;63191;39.566;2.654;2023-02-03T06:20:33;7.20;;;1.40;;
74660;SDS011;63191;39.566;2.654;2023-02-03T06:23:00;7.10;;;1.50;;
74660;SDS011;63191;39.566;2.654;2023-02-03T06:25:27;7.00;;;1.70;;
74660;SDS011;63191;39.566;2.654;2023-02-03T06:27:57;7.10;;;1.70;;
74660;SDS011;63191;39.566;2.654;2023-02-03T06:30:23;7.60;;;1.80;;
74660;SDS011;63191;39.566;2.654;2023-02-03T06:32:50;7.10;;;1.60;;
74660;SDS011;63191;39.566;2.654;2023-02-03T06:35:16;8.10;;;2.00;;
74660;SDS011;63191;39.566;2.654;2023-02-03T06:37:42;7.60;;;1.90;;
74660;SDS011;63191;39.566;2.654;2023-02-03T06:40:09;6.80;;;1.80;;
74660;SDS011;63191;39.566;2.654;2023-02-03T06:42:35;6.10;;;1.40;;
74660;SDS011;63191;39.566;2.654;2023-02-03T06:45:01;6.20;;;1.50;;
74660;SDS011;63191;39.566;2.654;2023-02-03T06:47:27;10.20;;;2.00;;
74660;SDS011;63191;39.566;2.654;2023-02-03T06:49:53;8.20;;;1.90;;
74660;SDS011;63191;39.566;2.654;2023-02-03T06:52:18;6.50;;;1.60;;
74660;SDS011;63191;39.566;2.654;2023-02-03T06:54:45;6.20;;;1.60;;
74660;SDS011;63191;39.566;2.654;2023-02-03T06:57:11;7.10;;;2.20;;
74660;SDS011;63191;39.566;2.654;2023-02-03T06:59:37;8.60;;;1.80;;
74660;SDS011;63191;39.566;2.654;2023-02-03T07:02:03;10.10;;;1.80;;
74660;SDS011;63191;39.566;2.654;2023-02-03T07:04:29;8.70;;;2.20;;
74660;SDS011;63191;39.566;2.654;2023-02-03T07:06:57;9.80;;;2.30;;
74660;SDS011;63191;39.566;2.654;2023-02-03T07:09:23;7.80;;;2.00;;
74660;SDS011;63191;39.566;2.654;2023-02-03T07:11:49;9.10;;;2.40;;
74660;SDS011;63191;39.566;2.654;2023-02-03T07:14:15;9.90;;;2.30;;
74660;SDS011;63191;39.566;2.654;2023-02-03T07:16:41;6.30;;;1.90;;
74660;SDS011;63191;39.566;2.654;2023-02-03T07:19:07;9.20;;;2.30;;
74660;SDS011;63191;39.566;2.654;2023-02-03T07:21:32;6.80;;;2.10;;
74660;SDS011;63191;39.566;2.654;2023-02-03T07:23:58;8.30;;;2.20;;
74660;SDS011;63191;39.566;2.654;2023-02-03T07:26:24;7.90;;;2.40;;
74660;SDS011;63191;39.566;2.654;2023-02-03T07:28:51;11.30;;;2.70;;
74660;SDS011;63191;39.566;2.654;2023-02-03T07:31:17;8.30;;;2.60;;
74660;SDS011;63191;39.566;2.654;2023-02-03T07:33:43;10.20;;;2.40;;
74660;SDS011;63191;39.566;2.654;2023-02-03T07:36:10;12.70;;;2.90;;
74660;SDS011;63191;39.566;2.654;2023-02-03T07:38:36;11.90;;;3.00;;
74660;SDS011;63191;39.566;2.654;2023-02-03T07:41:04;12.40;;;3.50;;
74660;SDS011;63191;39.566;2.654;2023-02-03T07:43:30;9.70;;;3.10;;
74660;SDS011;63191;39.566;2.654;2023-02-03T07:45:57;11.60;;;3.50;;
74660;SDS011;63191;39.566;2.654;2023-02-03T07:48:23;12.00;;;3.70;;
74660;SDS011;63191;39.566;2.654;2023-02-03T07:50:49;11.20;;;3.50;;
74660;SDS011;63191;39.566;2.654;2023-02-03T07:53:17;10.90;;;3.40;;
74660;SDS011;63191;39.566;2.654;2023-02-03T07:55:43;10.40;;;3.40;;
74660;SDS011;63191;39.566;2.654;2023-02-03T07:58:09;10.70;;;3.70;;
74660;SDS011;63191;39.566;2.654;2023-02-03T08:00:34;13.90;;;4.00;;
74660;SDS011;63191;39.566;2.654;2023-02-03T08:03:01;14.40;;;4.30;;
74660;SDS011;63191;39.566;2.654;2023-02-03T08:05:27;12.30;;;4.20;;
74660;SDS011;63191;39.566;2.654;2023-02-03T08:07:55;12.50;;;3.90;;
74660;SDS011;63191;39.566;2.654;2023-02-03T08:10:21;11.90;;;4.30;;
74660;SDS011;63191;39.566;2.654;2023-02-03T08:12:47;13.70;;;4.50;;
74660;SDS011;63191;39.566;2.654;2023-02-03T08:15:13;15.40;;;4.90;;
74660;SDS011;63191;39.566;2.654;2023-02-03T08:17:39;16.70;;;4.90;;
74660;SDS011;63191;39.566;2.654;2023-02-03T08:20:07;21.80;;;5.60;;
74660;SDS011;63191;39.566;2.654;2023-02-03T08:22:34;14.90;;;4.60;;
74660;SDS011;63191;39.566;2.654;2023-02-03T08:24:59;15.90;;;5.20;;
74660;SDS011;63191;39.566;2.654;2023-02-03T08:27:25;14.80;;;5.40;;
74660;SDS011;63191;39.566;2.654;2023-02-03T08:29:51;15.20;;;5.30;;
74660;SDS011;63191;39.566;2.654;2023-02-03T08:32:19;17.30;;;5.60;;
74660;SDS011;63191;39.566;2.654;2023-02-03T08:34:46;15.90;;;5.40;;
74660;SDS011;63191;39.566;2.654;2023-02-03T08:37:15;14.80;;;5.80;;
74660;SDS011;63191;39.566;2.654;2023-02-03T08:39:43;16.80;;;6.60;;
74660;SDS011;63191;39.566;2.654;2023-02-03T08:42:09;15.60;;;6.00;;
74660;SDS011;63191;39.566;2.654;2023-02-03T08:44:35;19.90;;;6.50;;
74660;SDS011;63191;39.566;2.654;2023-02-03T08:47:04;17.00;;;6.90;;
74660;SDS011;63191;39.566;2.654;2023-02-03T08:49:30;15.60;;;6.20;;
74660;SDS011;63191;39.566;2.654;2023-02-03T08:51:57;20.70;;;7.80;;
74660;SDS011;63191;39.566;2.654;2023-02-03T08:54:24;16.10;;;6.60;;
74660;SDS011;63191;39.566;2.654;2023-02-03T08:56:50;21.10;;;7.10;;
74660;SDS011;63191;39.566;2.654;2023-02-03T08:59:16;17.50;;;6.90;;
74660;SDS011;63191;39.566;2.654;2023-02-03T09:01:42;21.10;;;8.10;;
74660;SDS011;63191;39.566;2.654;2023-02-03T09:04:14;19.30;;;6.20;;
74660;SDS011;63191;39.566;2.654;2023-02-03T09:06:49;17.00;;;5.90;;
74660;SDS011;63191;39.566;2.654;2023-02-03T09:09:16;15.70;;;6.90;;
74660;SDS011;63191;39.566;2.654;2023-02-03T09:11:42;13.90;;;6.50;;
74660;SDS011;63191;39.566;2.654;2023-02-03T09:14:08;27.60;;;7.50;;
74660;SDS011;63191;39.566;2.654;2023-02-03T09:16:35;18.80;;;7.70;;
74660;SDS011;63191;39.566;2.654;2023-02-03T09:19:02;15.70;;;7.80;;
74660;SDS011;63191;39.566;2.654;2023-02-03T09:21:27;15.70;;;7.60;;
74660;SDS011;63191;39.566;2.654;2023-02-03T09:23:53;17.10;;;7.70;;
74660;SDS011;63191;39.566;2.654;2023-02-03T09:26:19;14.90;;;6.90;;
74660;SDS011;63191;39.566;2.654;2023-02-03T09:28:45;13.80;;;7.30;;
74660;SDS011;63191;39.566;2.654;2023-02-03T09:31:14;15.40;;;7.30;;
74660;SDS011;63191;39.566;2.654;2023-02-03T09:33:44;15.30;;;7.30;;
74660;SDS011;63191;39.566;2.654;2023-02-03T09:36:12;15.20;;;6.80;;
74660;SDS011;63191;39.566;2.654;2023-02-03T09:38:38;14.70;;;7.00;;
74660;SDS011;63191;39.566;2.654;2023-02-03T09:41:12;15.80;;;7.30;;
74660;SDS011;63191;39.566;2.654;2023-02-03T09:46:26;14.90;;;7.00;;
74660;SDS011;63191;39.566;2.654;2023-02-03T09:49:21;16.00;;;8.60;;
74660;SDS011;63191;39.566;2.654;2023-02-03T09:52:04;15.30;;;8.10;;
74660;SDS011;63191;39.566;2.654;2023-02-03T09:57:26;17.10;;;8.90;;
74660;SDS011;63191;39.566;2.654;2023-02-03T09:59:57;16.60;;;8.40;;
74660;SDS011;63191;39.566;2.654;2023-02-03T10:10:40;13.10;;;7.30;;
74660;SDS011;63191;39.566;2.654;2023-02-03T10:13:19;12.30;;;7.30;;
74660;SDS011;63191;39.566;2.654;2023-02-03T10:18:50;16.10;;;7.50;;
74660;SDS011;63191;39.566;2.654;2023-02-03T10:23:53;14.50;;;7.30;;
74660;SDS011;63191;39.566;2.654;2023-02-03T10:26:25;14.20;;;7.30;;
74660;SDS011;63191;39.566;2.654;2023-02-03T10:28:54;12.40;;;6.10;;
74660;SDS011;63191;39.566;2.654;2023-02-03T10:31:24;12.50;;;7.40;;
74660;SDS011;63191;39.566;2.654;2023-02-03T10:34:00;12.50;;;7.20;;
74660;SDS011;63191;39.566;2.654;2023-02-03T10:41:59;13.30;;;8.30;;
74660;SDS011;63191;39.566;2.654;2023-02-03T10:44:33;10.70;;;7.70;;
74660;SDS011;63191;39.566;2.654;2023-02-03T10:47:31;13.40;;;8.30;;
74660;SDS011;63191;39.566;2.654;2023-02-03T10:50:15;14.20;;;8.30;;
74660;SDS011;63191;39.566;2.654;2023-02-03T10:52:46;14.10;;;7.90;;
74660;SDS011;63191;39.566;2.654;2023-02-03T10:57:50;13.50;;;8.60;;
74660;SDS011;63191;39.566;2.654;2023-02-03T11:03:07;15.00;;;8.80;;
74660;SDS011;63191;39.566;2.654;2023-02-03T11:05:45;13.60;;;8.50;;
74660;SDS011;63191;39.566;2.654;2023-02-03T11:08:15;13.80;;;8.70;;
74660;SDS011;63191;39.566;2.654;2023-02-03T11:10:41;12.60;;;9.20;;
74660;SDS011;63191;39.566;2.654;2023-02-03T11:13:12;16.60;;;9.30;;
74660;SDS011;63191;39.566;2.654;2023-02-03T11:18:34;12.80;;;10.10;;
74660;SDS011;63191;39.566;2.654;2023-02-03T11:21:14;14.60;;;10.40;;
74660;SDS011;63191;39.566;2.654;2023-02-03T11:23:55;12.90;;;10.30;;
74660;SDS011;63191;39.566;2.654;2023-02-03T11:26:52;15.70;;;11.30;;
74660;SDS011;63191;39.566;2.654;2023-02-03T11:29:30;13.00;;;11.60;;
74660;SDS011;63191;39.566;2.654;2023-02-03T11:32:01;14.70;;;11.50;;
74660;SDS011;63191;39.566;2.654;2023-02-03T11:34:36;13.50;;;12.10;;
74660;SDS011;63191;39.566;2.654;2023-02-03T11:37:26;14.10;;;12.20;;
74660;SDS011;63191;39.566;2.654;2023-02-03T11:42:34;14.20;;;12.00;;
74660;SDS011;63191;39.566;2.654;2023-02-03T11:48:17;14.30;;;12.10;;
74660;SDS011;63191;39.566;2.654;2023-02-03T12:16:40;19.00;;;11.90;;
74660;SDS011;63191;39.566;2.654;2023-02-03T12:31:19;16.30;;;12.10;;
74660;SDS011;63191;39.566;2.654;2023-02-03T12:33:53;12.40;;;10.80;;
74660;SDS011;63191;39.566;2.654;2023-02-03T12:36:39;14.70;;;11.50;;
74660;SDS011;63191;39.566;2.654;2023-02-03T12:39:35;12.40;;;11.00;;
74660;SDS011;63191;39.566;2.654;2023-02-03T12:42:23;13.60;;;11.10;;
74660;SDS011;63191;39.566;2.654;2023-02-03T12:52:59;16.40;;;9.40;;
74660;SDS011;63191;39.566;2.654;2023-02-03T12:56:03;11.00;;;7.70;;
74660;SDS011;63191;39.566;2.654;2023-02-03T12:58:45;16.50;;;8.10;;
74660;SDS011;63191;39.566;2.654;2023-02-03T13:01:35;12.00;;;8.70;;
74660;SDS011;63191;39.566;2.654;2023-02-03T13:04:23;11.20;;;7.90;;
74660;SDS011;63191;39.566;2.654;2023-02-03T13:07:14;10.50;;;7.90;;
74660;SDS011;63191;39.566;2.654;2023-02-03T13:09:57;9.00;;;6.60;;
74660;SDS011;63191;39.566;2.654;2023-02-03T13:12:30;9.80;;;6.20;;
74660;SDS011;63191;39.566;2.654;2023-02-03T13:15:17;11.80;;;6.50;;
74660;SDS011;63191;39.566;2.654;2023-02-03T13:20:58;10.80;;;4.30;;
74660;SDS011;63191;39.566;2.654;2023-02-03T13:23:25;10.10;;;4.00;;
74660;SDS011;63191;39.566;2.654;2023-02-03T13:32:18;13.30;;;4.30;;
74660;SDS011;63191;39.566;2.654;2023-02-03T13:41:18;12.40;;;3.20;;
74660;SDS011;63191;39.566;2.654;2023-02-03T13:43:59;10.10;;;3.10;;
74660;SDS011;63191;39.566;2.654;2023-02-03T13:46:32;12.50;;;3.40;;
74660;SDS011;63191;39.566;2.654;2023-02-03T13:49:01;10.30;;;3.00;;
74660;SDS011;63191;39.566;2.654;2023-02-03T13:51:33;7.10;;;1.80;;
74660;SDS011;63191;39.566;2.654;2023-02-03T13:54:11;10.10;;;3.10;;
74660;SDS011;63191;39.566;2.654;2023-02-03T13:56:39;10.40;;;2.40;;
74660;SDS011;63191;39.566;2.654;2023-02-03T14:01:41;10.50;;;2.50;;
74660;SDS011;63191;39.566;2.654;2023-02-03T14:07:01;8.00;;;2.20;;
74660;SDS011;63191;39.566;2.654;2023-02-03T14:12:20;11.90;;;2.10;;
74660;SDS011;63191;39.566;2.654;2023-02-03T14:14:59;9.90;;;2.20;;
74660;SDS011;63191;39.566;2.654;2023-02-03T14:22:58;10.10;;;1.60;;
74660;SDS011;63191;39.566;2.654;2023-02-03T14:25:26;9.70;;;1.90;;
74660;SDS011;63191;39.566;2.654;2023-02-03T14:28:00;8.40;;;1.70;;
74660;SDS011;63191;39.566;2.654;2023-02-03T14:30:27;11.00;;;1.80;;
74660;SDS011;63191;39.566;2.654;2023-02-03T14:32:55;10.80;;;1.80;;
74660;SDS011;63191;39.566;2.654;2023-02-03T14:35:30;7.90;;;1.40;;
74660;SDS011;63191;39.566;2.654;2023-02-03T14:38:03;8.50;;;1.90;;
74660;SDS011;63191;39.566;2.654;2023-02-03T14:41:01;7.80;;;1.70;;
74660;SDS011;63191;39.566;2.654;2023-02-03T14:52:24;10.60;;;1.50;;
74660;SDS011;63191;39.566;2.654;2023-02-03T14:55:18;12.20;;;1.50;;
74660;SDS011;63191;39.566;2.654;2023-02-03T14:58:28;10.40;;;1.60;;
74660;SDS011;63191;39.566;2.654;2023-02-03T15:01:03;9.80;;;2.20;;
74660;SDS011;63191;39.566;2.654;2023-02-03T15:03:29;9.00;;;1.50;;
74660;SDS011;63191;39.566;2.654;2023-02-03T15:06:03;9.80;;;1.80;;
74660;SDS011;63191;39.566;2.654;2023-02-03T15:08:39;7.70;;;1.10;;
74660;SDS011;63191;39.566;2.654;2023-02-03T15:11:25;12.30;;;1.70;;
74660;SDS011;63191;39.566;2.654;2023-02-03T15:13:55;9.30;;;1.30;;
74660;SDS011;63191;39.566;2.654;2023-02-03T15:16:41;8.10;;;1.30;;
74660;SDS011;63191;39.566;2.654;2023-02-03T15:19:16;10.90;;;1.50;;
74660;SDS011;63191;39.566;2.654;2023-02-03T15:21:45;9.00;;;1.90;;
74660;SDS011;63191;39.566;2.654;2023-02-03T15:24:14;6.80;;;1.20;;
74660;SDS011;63191;39.566;2.654;2023-02-03T15:26:52;10.10;;;1.80;;
74660;SDS011;63191;39.566;2.654;2023-02-03T15:29:30;8.30;;;1.40;;
74660;SDS011;63191;39.566;2.654;2023-02-03T15:32:07;9.50;;;1.50;;
74660;SDS011;63191;39.566;2.654;2023-02-03T15:34:46;8.90;;;2.30;;
74660;SDS011;63191;39.566;2.654;2023-02-03T15:37:31;12.60;;;2.10;;
74660;SDS011;63191;39.566;2.654;2023-02-03T15:42:37;6.80;;;1.50;;
74660;SDS011;63191;39.566;2.654;2023-02-03T15:45:25;9.20;;;2.00;;
74660;SDS011;63191;39.566;2.654;2023-02-03T15:48:12;11.70;;;2.10;;
74660;SDS011;63191;39.566;2.654;2023-02-03T15:50:47;8.50;;;1.60;;
74660;SDS011;63191;39.566;2.654;2023-02-03T15:53:47;11.80;;;2.40;;
74660;SDS011;63191;39.566;2.654;2023-02-03T15:56:34;13.50;;;1.80;;
74660;SDS011;63191;39.566;2.654;2023-02-03T15:59:25;8.20;;;1.70;;
74660;SDS011;63191;39.566;2.654;2023-02-03T16:01:56;10.50;;;2.20;;
74660;SDS011;63191;39.566;2.654;2023-02-03T16:04:24;8.90;;;1.40;;
74660;SDS011;63191;39.566;2.654;2023-02-03T16:06:52;9.00;;;1.80;;
74660;SDS011;63191;39.566;2.654;2023-02-03T16:09:26;13.60;;;1.60;;
74660;SDS011;63191;39.566;2.654;2023-02-03T16:12:17;14.70;;;1.60;;
74660;SDS011;63191;39.566;2.654;2023-02-03T16:14:57;8.80;;;1.10;;
74660;SDS011;63191;39.566;2.654;2023-02-03T16:17:30;7.40;;;1.00;;
74660;SDS011;63191;39.566;2.654;2023-02-03T16:22:43;9.80;;;1.50;;
74660;SDS011;63191;39.566;2.654;2023-02-03T16:25:18;10.80;;;1.50;;
74660;SDS011;63191;39.566;2.654;2023-02-03T16:27:58;9.90;;;1.50;;
74660;SDS011;63191;39.566;2.654;2023-02-03T16:31:09;11.30;;;1.50;;
74660;SDS011;63191;39.566;2.654;2023-02-03T16:33:59;10.70;;;1.50;;
74660;SDS011;63191;39.566;2.654;2023-02-03T16:36:44;12.80;;;1.80;;
74660;SDS011;63191;39.566;2.654;2023-02-03T16:39:29;11.30;;;1.70;;
74660;SDS011;63191;39.566;2.654;2023-02-03T16:42:19;8.90;;;1.20;;
74660;SDS011;63191;39.566;2.654;2023-02-03T16:45:15;10.70;;;1.70;;
74660;SDS011;63191;39.566;2.654;2023-02-03T16:48:01;9.80;;;1.60;;
74660;SDS011;63191;39.566;2.654;2023-02-03T16:50:46;9.00;;;1.40;;
74660;SDS011;63191;39.566;2.654;2023-02-03T16:53:20;10.50;;;1.60;;
74660;SDS011;63191;39.566;2.654;2023-02-03T16:55:48;15.10;;;2.30;;
74660;SDS011;63191;39.566;2.654;2023-02-03T16:58:14;11.50;;;1.50;;
74660;SDS011;63191;39.566;2.654;2023-02-03T17:00:43;15.00;;;2.00;;
74660;SDS011;63191;39.566;2.654;2023-02-03T17:03:13;11.50;;;2.80;;
74660;SDS011;63191;39.566;2.654;2023-02-03T17:05:41;9.80;;;1.50;;
74660;SDS011;63191;39.566;2.654;2023-02-03T17:08:09;13.90;;;1.80;;
74660;SDS011;63191;39.566;2.654;2023-02-03T17:10:36;10.90;;;1.70;;
74660;SDS011;63191;39.566;2.654;2023-02-03T17:13:05;13.70;;;1.70;;
74660;SDS011;63191;39.566;2.654;2023-02-03T17:15:39;14.40;;;1.80;;
74660;SDS011;63191;39.566;2.654;2023-02-03T17:18:05;10.30;;;1.90;;
74660;SDS011;63191;39.566;2.654;2023-02-03T17:20:31;10.50;;;1.90;;
74660;SDS011;63191;39.566;2.654;2023-02-03T17:22:57;10.90;;;1.70;;
74660;SDS011;63191;39.566;2.654;2023-02-03T17:25:22;11.80;;;2.90;;
74660;SDS011;63191;39.566;2.654;2023-02-03T17:27:48;12.00;;;2.40;;
74660;SDS011;63191;39.566;2.654;2023-02-03T17:30:14;10.70;;;2.10;;
74660;SDS011;63191;39.566;2.654;2023-02-03T17:32:40;11.40;;;2.70;;
74660;SDS011;63191;39.566;2.654;2023-02-03T17:35:06;14.60;;;2.60;;